createdAt,value
2023-04-13T00:00:32.386Z,65.80
2023-04-13T00:03:02.361Z,66.20
2023-04-13T00:05:31.183Z,66.90
2023-04-13T00:08:03.031Z,66.80
2023-04-13T00:10:31.650Z,67.30
2023-04-13T00:13:01.512Z,67.50
2023-04-13T00:15:31.208Z,68.00
2023-04-13T00:17:59.688Z,68.30
2023-04-13T00:20:27.946Z,68.60
2023-04-13T00:22:56.256Z,68.40
2023-04-13T00:25:24.711Z,68.30
2023-04-13T00:27:53.959Z,68.70
2023-04-13T00:30:22.947Z,69.00
2023-04-13T00:32:52.814Z,69.40
2023-04-13T00:35:25.069Z,69.80
2023-04-13T00:37:53.714Z,69.70
2023-04-13T00:40:21.908Z,69.60
2023-04-13T00:42:51.779Z,68.60
2023-04-13T00:45:20.904Z,68.40
2023-04-13T00:47:51.860Z,67.10
2023-04-13T00:50:22.113Z,66.20
2023-04-13T00:52:50.711Z,65.20
2023-04-13T00:55:21.999Z,64.50
2023-04-13T00:57:52.963Z,64.90
2023-04-13T01:00:21.788Z,63.60
2023-04-13T01:02:50.634Z,63.10
2023-04-13T01:05:19.695Z,63.10
2023-04-13T01:08:05.661Z,62.90
2023-04-13T01:10:40.605Z,62.60
2023-04-13T01:13:17.373Z,62.10
2023-04-13T01:15:58.167Z,62.30
2023-04-13T01:18:28.433Z,61.70
2023-04-13T01:20:57.449Z,61.80
2023-04-13T01:23:36.859Z,61.60
2023-04-13T01:26:08.980Z,60.80
2023-04-13T01:28:40.641Z,61.20
2023-04-13T01:31:11.923Z,60.90
2023-04-13T01:33:41.535Z,61.20
2023-04-13T01:36:12.575Z,61.70
2023-04-13T01:38:40.907Z,61.50
2023-04-13T01:41:15.812Z,61.60
2023-04-13T01:43:47.960Z,61.70
2023-04-13T01:46:20.456Z,61.50
2023-04-13T01:49:03.993Z,61.20
2023-04-13T01:51:42.790Z,61.00
2023-04-13T01:54:15.634Z,61.70
2023-04-13T01:56:46.928Z,61.00
2023-04-13T01:59:17.307Z,60.20
2023-04-13T02:01:46.010Z,61.70
2023-04-13T02:04:18.750Z,60.70
2023-04-13T02:06:48.292Z,61.50
2023-04-13T02:09:17.102Z,61.30
2023-04-13T02:11:45.232Z,61.20
2023-04-13T02:14:13.509Z,61.00
2023-04-13T02:16:43.819Z,60.90
2023-04-13T02:19:15.127Z,61.10
2023-04-13T02:21:43.265Z,61.00
2023-04-13T02:24:12.816Z,60.80
2023-04-13T02:26:41.520Z,60.70
2023-04-13T02:29:10.064Z,60.70
2023-04-13T02:31:43.480Z,60.50
2023-04-13T02:34:13.088Z,60.90
2023-04-13T02:36:43.080Z,60.30
2023-04-13T02:39:11.268Z,60.70
2023-04-13T02:41:43.357Z,61.00
2023-04-13T02:44:15.989Z,61.00
2023-04-13T02:46:51.344Z,61.60
2023-04-13T02:49:21.178Z,61.00
2023-04-13T02:51:57.485Z,60.70
2023-04-13T02:54:38.902Z,61.00
2023-04-13T02:57:06.985Z,60.50
2023-04-13T02:59:39.719Z,60.20
2023-04-13T03:02:10.156Z,60.60
2023-04-13T03:04:40.557Z,60.80
2023-04-13T03:07:10.110Z,60.20
2023-04-13T03:09:44.770Z,60.70
2023-04-13T03:12:13.138Z,60.70
2023-04-13T03:14:43.996Z,61.00
2023-04-13T03:17:12.975Z,60.30
2023-04-13T03:19:46.605Z,60.30
2023-04-13T03:22:15.997Z,58.80
2023-04-13T03:24:47.349Z,59.00
2023-04-13T03:27:23.793Z,58.00
2023-04-13T03:29:54.843Z,57.00
2023-04-13T03:32:24.164Z,56.60
2023-04-13T03:35:00.422Z,56.80
2023-04-13T03:37:32.524Z,57.00
2023-04-13T03:40:11.210Z,56.50
2023-04-13T03:42:47.723Z,55.70
2023-04-13T03:45:16.218Z,55.90
2023-04-13T03:47:44.911Z,55.10
2023-04-13T03:50:14.907Z,55.30
2023-04-13T03:52:43.116Z,55.40
2023-04-13T03:55:11.902Z,55.90
2023-04-13T03:57:41.441Z,55.30
2023-04-13T04:00:15.835Z,55.10
2023-04-13T04:02:59.293Z,54.40
2023-04-13T04:05:37.308Z,53.50
2023-04-13T04:08:06.787Z,53.50
2023-04-13T04:10:35.109Z,54.40
2023-04-13T04:13:03.942Z,54.40
2023-04-13T04:15:35.611Z,54.90
2023-04-13T04:18:07.556Z,55.40
2023-04-13T04:20:40.595Z,55.60
2023-04-13T04:23:11.306Z,56.30
2023-04-13T04:25:48.602Z,56.70
2023-04-13T04:28:18.128Z,56.70
2023-04-13T04:30:54.323Z,58.00
2023-04-13T04:33:23.755Z,57.90
2023-04-13T04:35:54.455Z,57.80
2023-04-13T04:38:30.447Z,58.40
2023-04-13T04:41:02.250Z,58.30
2023-04-13T04:43:30.762Z,58.20
2023-04-13T04:46:03.233Z,58.60
2023-04-13T04:48:32.820Z,58.60
2023-04-13T04:51:02.320Z,59.10
2023-04-13T04:53:35.165Z,59.50
2023-04-13T04:56:07.489Z,59.60
2023-04-13T04:58:43.890Z,60.40
2023-04-13T05:01:12.814Z,60.70
2023-04-13T05:03:42.179Z,60.50
2023-04-13T05:06:27.198Z,60.20
2023-04-13T05:08:56.963Z,60.20
2023-04-13T05:11:25.901Z,60.20
2023-04-13T05:13:59.706Z,59.80
2023-04-13T05:16:30.576Z,60.00
2023-04-13T05:19:07.876Z,59.70
2023-04-13T05:21:50.252Z,59.80
2023-04-13T05:24:19.034Z,59.90
2023-04-13T05:26:47.962Z,60.00
2023-04-13T05:29:22.422Z,59.70
2023-04-13T05:31:51.324Z,60.20
2023-04-13T05:34:20.166Z,58.70
2023-04-13T05:37:08.626Z,59.00
2023-04-13T05:39:36.789Z,59.00
2023-04-13T05:42:05.537Z,58.70
2023-04-13T05:44:38.721Z,58.50
2023-04-13T05:47:07.384Z,58.60
2023-04-13T05:49:36.950Z,58.30
2023-04-13T05:52:07.622Z,57.50
2023-04-13T05:54:42.786Z,58.30
2023-04-13T05:57:10.936Z,57.70
2023-04-13T05:59:44.558Z,57.60
2023-04-13T06:02:14.267Z,57.90
2023-04-13T06:04:43.363Z,58.20
2023-04-13T06:07:16.375Z,58.10
2023-04-13T06:09:44.530Z,57.70
2023-04-13T06:12:12.597Z,58.50
2023-04-13T06:14:42.836Z,57.90
2023-04-13T06:17:11.062Z,58.00
2023-04-13T06:19:39.353Z,58.70
2023-04-13T06:22:07.483Z,58.90
2023-04-13T06:24:40.402Z,58.50
2023-04-13T06:27:11.223Z,58.80
2023-04-13T06:29:41.640Z,58.80
2023-04-13T06:32:12.220Z,58.20
2023-04-13T06:34:41.157Z,58.60
2023-04-13T06:37:09.793Z,58.50
2023-04-13T06:39:49.685Z,59.60
2023-04-13T06:42:19.763Z,59.30
2023-04-13T06:45:00.154Z,59.10
2023-04-13T06:47:33.498Z,60.70
2023-04-13T06:50:05.145Z,59.90
2023-04-13T06:52:34.050Z,59.40
2023-04-13T06:55:04.140Z,60.00
2023-04-13T06:57:37.260Z,60.00
2023-04-13T07:00:21.835Z,60.30
2023-04-13T07:02:54.916Z,60.50
2023-04-13T07:05:24.069Z,60.80
2023-04-13T07:07:54.581Z,63.30
2023-04-13T07:10:26.039Z,61.20
2023-04-13T07:12:56.356Z,62.30
2023-04-13T07:15:28.767Z,62.20
2023-04-13T07:17:57.038Z,63.80
2023-04-13T07:20:25.399Z,62.90
2023-04-13T07:22:53.824Z,61.70
2023-04-13T07:25:22.120Z,61.90
2023-04-13T07:27:54.279Z,62.40
2023-04-13T07:30:23.710Z,61.60
2023-04-13T07:32:52.219Z,61.70
2023-04-13T07:35:22.066Z,60.80
2023-04-13T07:37:53.083Z,60.30
2023-04-13T07:40:22.819Z,59.90
2023-04-13T07:42:56.339Z,60.10
2023-04-13T07:45:25.399Z,60.40
2023-04-13T07:47:54.717Z,59.60
2023-04-13T07:50:23.095Z,59.90
2023-04-13T07:52:52.824Z,61.00
2023-04-13T07:55:23.703Z,60.70
2023-04-13T07:57:53.432Z,61.60
2023-04-13T08:00:23.516Z,61.40
2023-04-13T08:02:57.515Z,61.60
2023-04-13T08:05:27.854Z,62.00
2023-04-13T08:07:56.515Z,60.50
2023-04-13T08:10:25.951Z,60.50
2023-04-13T08:12:56.473Z,60.70
2023-04-13T08:15:26.313Z,60.40
2023-04-13T08:17:55.416Z,59.70
2023-04-13T08:20:24.870Z,59.10
2023-04-13T08:22:55.351Z,58.90
2023-04-13T08:25:23.993Z,58.80
2023-04-13T08:27:52.345Z,57.80
2023-04-13T08:30:20.737Z,57.90
2023-04-13T08:32:59.390Z,56.90
2023-04-13T08:35:28.367Z,54.50
2023-04-13T08:38:00.292Z,54.10
2023-04-13T08:40:28.552Z,53.40
2023-04-13T08:42:58.189Z,54.30
2023-04-13T08:45:28.054Z,53.90
2023-04-13T08:47:56.744Z,52.40
2023-04-13T08:50:27.853Z,53.00
2023-04-13T08:52:57.632Z,52.70
2023-04-13T08:55:27.461Z,52.00
2023-04-13T08:57:59.422Z,52.10
2023-04-13T09:00:28.359Z,53.10
2023-04-13T09:03:05.670Z,51.90
2023-04-13T09:05:43.027Z,51.50
2023-04-13T09:08:14.228Z,51.40
2023-04-13T09:10:46.022Z,51.60
2023-04-13T09:13:14.145Z,51.40
2023-04-13T09:15:49.900Z,50.40
2023-04-13T09:18:25.464Z,51.40
2023-04-13T09:21:02.121Z,47.40
2023-04-13T09:23:30.303Z,48.10
2023-04-13T09:26:09.454Z,48.20
2023-04-13T09:28:47.857Z,48.50
2023-04-13T09:31:16.908Z,48.80
2023-04-13T09:33:46.822Z,49.90
2023-04-13T09:36:18.808Z,49.40
2023-04-13T09:38:52.424Z,50.00
2023-04-13T09:41:30.103Z,50.60
2023-04-13T09:43:58.710Z,50.10
2023-04-13T09:46:27.048Z,50.60
2023-04-13T09:49:03.505Z,48.10
2023-04-13T09:51:41.959Z,47.40
2023-04-13T09:54:11.789Z,48.30
2023-04-13T09:56:47.206Z,48.50
2023-04-13T09:59:15.913Z,48.20
2023-04-13T10:01:45.259Z,49.30
2023-04-13T10:04:13.735Z,49.10
2023-04-13T10:06:44.928Z,49.20
2023-04-13T10:09:13.321Z,51.20
2023-04-13T10:11:46.707Z,51.30
2023-04-13T10:14:19.807Z,50.40
2023-04-13T10:17:10.519Z,50.90
2023-04-13T10:19:43.262Z,50.90
2023-04-13T10:22:13.849Z,50.50
2023-04-13T10:24:42.254Z,50.80
2023-04-13T10:27:16.371Z,52.20
2023-04-13T10:29:44.583Z,52.00
2023-04-13T10:32:22.260Z,50.70
2023-04-13T10:34:50.514Z,50.60
2023-04-13T10:37:21.869Z,52.20
2023-04-13T10:39:51.799Z,52.90
2023-04-13T10:42:19.906Z,54.10
2023-04-13T10:44:49.048Z,55.20
2023-04-13T10:47:18.588Z,52.40
2023-04-13T10:49:47.735Z,51.90
2023-04-13T10:52:16.347Z,50.10
2023-04-13T10:54:45.990Z,52.00
2023-04-13T10:57:14.924Z,53.20
2023-04-13T11:02:17.601Z,50.90
2023-04-13T11:04:48.168Z,51.60
2023-04-13T11:07:18.157Z,51.70
2023-04-13T11:09:50.561Z,50.30
2023-04-13T11:12:19.484Z,48.00
2023-04-13T11:14:48.251Z,49.00
2023-04-13T11:17:18.941Z,49.80
2023-04-13T11:19:49.769Z,48.00
2023-04-13T11:22:19.233Z,49.50
2023-04-13T11:24:49.966Z,48.40
2023-04-13T11:27:19.265Z,49.00
2023-04-13T11:29:48.051Z,49.00
2023-04-13T11:32:19.616Z,47.90
2023-04-13T11:34:49.452Z,45.00
2023-04-13T11:37:18.132Z,43.80
2023-04-13T11:39:47.884Z,44.50
2023-04-13T11:42:15.965Z,42.80
2023-04-13T11:44:46.447Z,42.30
2023-04-13T11:47:18.452Z,39.90
2023-04-13T11:49:48.112Z,40.40
2023-04-13T11:52:17.340Z,42.10
2023-04-13T11:54:46.180Z,42.50
2023-04-13T11:57:18.111Z,43.90
2023-04-13T11:59:47.670Z,44.50
2023-04-13T12:02:22.083Z,42.30
2023-04-13T12:04:51.821Z,42.10
2023-04-13T12:07:20.979Z,42.70
2023-04-13T12:15:12.715Z,41.00
2023-04-13T12:17:49.617Z,42.70
2023-04-13T12:20:20.252Z,43.60
2023-04-13T12:22:57.734Z,42.80
2023-04-13T12:25:35.976Z,43.50
2023-04-13T12:28:06.248Z,42.00
2023-04-13T12:30:35.132Z,43.20
2023-04-13T12:33:03.466Z,42.80
2023-04-13T12:35:31.628Z,41.80
2023-04-13T12:38:00.330Z,42.20
2023-04-13T12:40:29.045Z,41.60
2023-04-13T12:42:57.381Z,40.40
2023-04-13T12:45:28.534Z,40.80
2023-04-13T12:47:57.050Z,41.20
2023-04-13T12:50:25.556Z,38.80
2023-04-13T12:52:53.648Z,38.10
2023-04-13T12:55:21.786Z,40.70
2023-04-13T12:57:50.149Z,40.00
2023-04-13T13:00:19.865Z,39.60
2023-04-13T13:02:54.277Z,36.60
2023-04-13T13:05:30.892Z,38.90
2023-04-13T13:07:59.020Z,37.60
2023-04-13T13:10:30.076Z,38.50
2023-04-13T13:12:58.665Z,37.20
2023-04-13T13:15:26.916Z,39.20
2023-04-13T13:17:56.561Z,39.60
2023-04-13T13:20:24.715Z,44.00
2023-04-13T13:22:53.045Z,52.30
2023-04-13T13:25:21.163Z,56.70
2023-04-13T13:30:20.236Z,65.20
2023-04-13T13:32:49.553Z,67.30
2023-04-13T13:35:19.464Z,70.00
2023-04-13T13:37:47.630Z,68.80
2023-04-13T13:40:15.928Z,69.60
2023-04-13T13:42:51.988Z,66.90
2023-04-13T13:45:20.991Z,64.70
2023-04-13T13:47:53.514Z,61.90
2023-04-13T13:50:29.703Z,61.60
2023-04-13T13:53:03.157Z,62.00
2023-04-13T13:55:36.488Z,59.00
2023-04-13T13:58:04.614Z,54.70
2023-04-13T14:00:33.029Z,57.20
2023-04-13T14:03:01.704Z,56.70
2023-04-13T14:05:32.312Z,57.10
2023-04-13T14:08:00.843Z,55.70
2023-04-13T14:10:29.031Z,54.00
2023-04-13T14:12:58.304Z,55.80
2023-04-13T14:15:26.713Z,54.60
2023-04-13T14:18:09.294Z,50.40
2023-04-13T14:20:40.701Z,50.90
2023-04-13T14:23:09.879Z,51.40
2023-04-13T14:25:40.081Z,50.80
2023-04-13T14:28:09.110Z,51.20
2023-04-13T14:30:37.789Z,46.90
2023-04-13T14:33:07.424Z,46.10
2023-04-13T14:35:35.653Z,44.70
2023-04-13T14:38:05.472Z,46.10
2023-04-13T14:40:33.615Z,44.80
2023-04-13T14:43:01.722Z,46.30
2023-04-13T14:45:29.989Z,44.20
2023-04-13T14:47:58.194Z,44.40
2023-04-13T14:50:26.423Z,43.20
2023-04-13T14:52:54.546Z,43.60
2023-04-13T14:55:24.478Z,45.30
2023-04-13T14:57:53.594Z,47.80
2023-04-13T15:00:26.329Z,46.90
2023-04-13T15:02:54.920Z,47.10
2023-04-13T15:05:23.624Z,46.10
2023-04-13T15:07:51.924Z,45.10
2023-04-13T15:10:21.306Z,44.50
2023-04-13T15:12:50.994Z,44.30
2023-04-13T15:15:19.342Z,43.40
2023-04-13T15:17:47.613Z,42.90
2023-04-13T15:20:15.813Z,42.90
2023-04-13T15:22:43.948Z,42.70
2023-04-13T15:25:12.392Z,43.60
2023-04-13T15:27:41.356Z,42.90
2023-04-13T15:30:11.986Z,42.60
2023-04-13T15:32:41.171Z,43.20
2023-04-13T15:35:10.088Z,42.80
2023-04-13T15:37:38.187Z,40.70
2023-04-13T15:40:07.851Z,41.60
2023-04-13T15:42:36.144Z,42.40
2023-04-13T15:45:05.380Z,41.90
2023-04-13T15:47:35.068Z,41.20
2023-04-13T15:50:04.251Z,41.90
2023-04-13T15:52:33.332Z,40.60
2023-04-13T15:55:01.632Z,41.50
2023-04-13T15:57:29.857Z,39.50
2023-04-13T15:59:57.988Z,37.40
2023-04-13T16:02:26.342Z,38.70
2023-04-13T16:04:56.800Z,38.70
2023-04-13T16:07:24.973Z,39.00
2023-04-13T16:09:56.361Z,38.80
2023-04-13T16:12:26.433Z,38.90
2023-04-13T16:14:56.121Z,38.90
2023-04-13T16:17:31.121Z,39.10
2023-04-13T16:20:18.252Z,39.30
2023-04-13T16:22:49.159Z,39.90
2023-04-13T16:25:19.164Z,39.70
2023-04-13T16:27:48.946Z,39.00
2023-04-13T16:30:20.748Z,39.10
2023-04-13T16:32:50.708Z,40.40
2023-04-13T16:35:20.643Z,39.80
2023-04-13T16:37:48.732Z,40.20
2023-04-13T16:40:16.990Z,39.50
2023-04-13T16:42:46.148Z,39.90
2023-04-13T16:45:15.243Z,40.80
2023-04-13T16:47:44.191Z,40.10
2023-04-13T16:50:13.473Z,41.40
2023-04-13T16:52:43.353Z,39.30
2023-04-13T16:55:15.034Z,38.80
2023-04-13T16:57:43.836Z,39.10
2023-04-13T17:00:13.017Z,39.60
2023-04-13T17:02:42.425Z,39.00
2023-04-13T17:05:12.453Z,39.80
2023-04-13T17:07:44.037Z,39.80
2023-04-13T17:10:13.745Z,38.30
2023-04-13T17:12:42.369Z,38.80
2023-04-13T17:15:11.315Z,38.50
2023-04-13T17:17:39.493Z,39.70
2023-04-13T17:20:09.438Z,39.60
2023-04-13T17:22:37.951Z,39.20
2023-04-13T17:25:08.713Z,40.00
2023-04-13T17:27:37.201Z,39.40
2023-04-13T17:30:06.669Z,39.80
2023-04-13T17:32:35.020Z,40.50
2023-04-13T17:35:03.403Z,40.90
2023-04-13T17:37:31.578Z,38.90
2023-04-13T17:40:00.535Z,39.70
2023-04-13T17:42:30.048Z,40.10
2023-04-13T17:44:58.269Z,39.40
2023-04-13T17:47:26.467Z,40.00
2023-04-13T17:49:54.969Z,41.10
2023-04-13T17:52:23.075Z,41.30
2023-04-13T17:54:51.566Z,41.80
2023-04-13T17:57:19.699Z,42.30
2023-04-13T17:59:49.355Z,42.60
2023-04-13T18:02:17.507Z,43.80
2023-04-13T18:04:46.522Z,44.60
2023-04-13T18:07:14.795Z,45.10
2023-04-13T18:09:42.874Z,45.60
2023-04-13T18:12:12.067Z,46.30
2023-04-13T18:14:40.405Z,46.90
2023-04-13T18:17:09.884Z,47.70
2023-04-13T18:19:38.233Z,47.30
2023-04-13T18:22:06.383Z,47.20
2023-04-13T18:24:34.473Z,47.90
2023-04-13T18:27:02.616Z,47.60
2023-04-13T18:29:30.748Z,47.90
2023-04-13T18:31:58.965Z,48.00
2023-04-13T18:34:30.146Z,48.30
2023-04-13T18:36:58.291Z,48.60
2023-04-13T18:39:27.029Z,48.70
2023-04-13T18:41:55.217Z,48.90
2023-04-13T18:44:23.358Z,48.60
2023-04-13T18:46:51.560Z,48.80
2023-04-13T18:49:19.685Z,49.10
2023-04-13T18:51:49.254Z,49.30
2023-04-13T18:54:17.505Z,49.40
2023-04-13T18:56:47.749Z,49.90
2023-04-13T18:59:15.860Z,50.30
2023-04-13T19:01:44.005Z,50.70
2023-04-13T19:04:12.217Z,51.10
2023-04-13T19:06:40.347Z,51.60
2023-04-13T19:09:09.825Z,51.70
2023-04-13T19:11:49.149Z,51.70
2023-04-13T19:14:17.264Z,51.80
2023-04-13T19:16:47.179Z,52.10
2023-04-13T19:19:16.101Z,51.90
2023-04-13T19:21:44.227Z,51.70
2023-04-13T19:24:14.110Z,52.20
2023-04-13T19:26:42.266Z,52.50
2023-04-13T19:29:12.656Z,52.70
2023-04-13T19:31:44.038Z,53.20
2023-04-13T19:34:13.142Z,52.80
2023-04-13T19:36:42.091Z,53.10
2023-04-13T19:39:10.881Z,52.50
2023-04-13T19:41:42.417Z,53.30
2023-04-13T19:44:10.471Z,53.00
2023-04-13T19:46:38.741Z,53.00
2023-04-13T19:49:07.884Z,53.00
2023-04-13T19:51:36.121Z,53.50
2023-04-13T19:54:05.121Z,54.20
2023-04-13T19:56:35.422Z,54.40
2023-04-13T19:59:06.388Z,54.40
2023-04-13T20:01:34.844Z,54.00
2023-04-13T20:04:05.254Z,54.10
2023-04-13T20:06:35.058Z,53.20
2023-04-13T20:09:10.924Z,53.80
2023-04-13T20:11:39.085Z,53.60
2023-04-13T20:14:09.295Z,53.50
2023-04-13T20:16:37.731Z,53.60
2023-04-13T20:19:06.728Z,54.10
2023-04-13T20:21:35.482Z,54.10
2023-04-13T20:24:04.462Z,54.00
2023-04-13T20:26:33.058Z,54.30
2023-04-13T20:29:03.090Z,54.80
2023-04-13T20:31:34.634Z,54.20
2023-04-13T20:34:04.107Z,53.90
2023-04-13T20:36:32.671Z,53.90
2023-04-13T20:39:01.134Z,53.60
2023-04-13T20:41:32.255Z,53.60
2023-04-13T20:44:01.405Z,54.00
2023-04-13T20:46:34.715Z,54.20
2023-04-13T20:49:05.707Z,54.10
2023-04-13T20:51:34.341Z,54.60
2023-04-13T20:54:05.521Z,55.40
2023-04-13T20:56:34.107Z,57.80
2023-04-13T20:59:03.150Z,56.40
2023-04-13T21:01:31.836Z,55.00
2023-04-13T21:04:00.212Z,54.70
2023-04-13T21:06:30.165Z,54.50
2023-04-13T21:08:59.364Z,54.30
2023-04-13T21:11:27.612Z,54.70
2023-04-13T21:13:56.051Z,54.80
2023-04-13T21:16:25.785Z,55.00
2023-04-13T21:18:54.145Z,55.10
2023-04-13T21:21:24.930Z,54.70
2023-04-13T21:23:55.394Z,55.20
2023-04-13T21:26:23.608Z,54.70
2023-04-13T21:28:51.670Z,55.10
2023-04-13T21:31:20.037Z,54.70
2023-04-13T21:33:48.194Z,54.70
2023-04-13T21:38:47.255Z,54.60
2023-04-13T21:41:17.691Z,54.90
2023-04-13T21:43:46.465Z,55.20
2023-04-13T21:46:15.899Z,55.50
2023-04-13T21:48:44.487Z,56.30
2023-04-13T21:51:12.782Z,55.70
2023-04-13T21:53:41.104Z,55.80
2023-04-13T21:56:09.466Z,56.00
2023-04-13T21:58:43.284Z,57.00
2023-04-13T22:01:12.840Z,56.70
2023-04-13T22:03:43.908Z,57.20
2023-04-13T22:06:12.731Z,57.80
2023-04-13T22:08:41.957Z,58.00
2023-04-13T22:11:10.901Z,59.90
2023-04-13T22:13:38.958Z,60.00
2023-04-13T22:16:09.470Z,59.50
2023-04-13T22:18:37.964Z,59.30
2023-04-13T22:21:07.147Z,60.10
2023-04-13T22:23:35.377Z,63.90
2023-04-13T22:26:04.030Z,63.00
2023-04-13T22:28:33.608Z,62.20
2023-04-13T22:31:08.968Z,63.60
2023-04-13T22:33:38.037Z,67.10
2023-04-13T22:36:08.040Z,65.10
2023-04-13T22:38:36.921Z,65.60
2023-04-13T22:41:07.856Z,65.90
2023-04-13T22:43:36.090Z,68.30
2023-04-13T22:46:04.250Z,66.60
2023-04-13T22:48:33.848Z,65.60
2023-04-13T22:51:03.469Z,68.10
2023-04-13T22:53:31.800Z,67.10
2023-04-13T22:56:00.624Z,67.00
2023-04-13T22:58:29.389Z,67.70
2023-04-13T23:00:57.511Z,69.10
2023-04-13T23:03:25.719Z,67.70
2023-04-13T23:05:55.336Z,67.80
2023-04-13T23:08:23.390Z,66.80
2023-04-13T23:10:51.688Z,67.70
2023-04-13T23:13:19.725Z,66.40
2023-04-13T23:15:47.880Z,65.30
2023-04-13T23:18:16.232Z,64.90
2023-04-13T23:20:44.370Z,65.50
2023-04-13T23:23:13.873Z,65.90
2023-04-13T23:25:42.041Z,66.50
2023-04-13T23:28:10.418Z,66.90
2023-04-13T23:30:38.540Z,67.00
2023-04-13T23:33:06.659Z,67.90
2023-04-13T23:35:35.133Z,69.20
2023-04-13T23:38:03.689Z,70.10
2023-04-13T23:40:33.258Z,70.40
2023-04-13T23:43:01.546Z,70.20
2023-04-13T23:45:29.711Z,70.00
2023-04-13T23:47:58.060Z,70.10
2023-04-13T23:50:26.562Z,70.50
2023-04-13T23:52:54.843Z,71.00
2023-04-13T23:55:23.010Z,71.70
2023-04-13T23:57:52.526Z,71.40
